sensor_id;sensor_type;location;lat;lon;timestamp;pressure;altitude;pressure_sealevel;temperature
19568;BMP280;9930;49.240;8.548;2023-02-15T00:00:06;102037.50;;;6.72
19568;BMP280;9930;49.240;8.548;2023-02-15T00:02:34;102039.25;;;6.73
19568;BMP280;9930;49.240;8.548;2023-02-15T00:04:59;102036.72;;;6.73
19568;BMP280;9930;49.240;8.548;2023-02-15T00:07:25;102017.47;;;6.65
19568;BMP280;9930;49.240;8.548;2023-02-15T00:09:51;102023.81;;;6.70
19568;BMP280;9930;49.240;8.548;2023-02-15T00:12:16;102024.81;;;6.72
19568;BMP280;9930;49.240;8.548;2023-02-15T00:14:42;102026.47;;;6.72
19568;BMP280;9930;49.240;8.548;2023-02-15T00:17:10;102017.97;;;6.71
19568;BMP280;9930;49.240;8.548;2023-02-15T00:19:38;102013.41;;;6.67
19568;BMP280;9930;49.240;8.548;2023-02-15T00:22:05;102004.56;;;6.62
19568;BMP280;9930;49.240;8.548;2023-02-15T00:24:36;102011.78;;;6.68
19568;BMP280;9930;49.240;8.548;2023-02-15T00:27:04;102010.13;;;6.68
19568;BMP280;9930;49.240;8.548;2023-02-15T00:29:30;102004.56;;;6.62
19568;BMP280;9930;49.240;8.548;2023-02-15T00:32:01;102006.22;;;6.62
19568;BMP280;9930;49.240;8.548;2023-02-15T00:34:28;102001.91;;;6.61
19568;BMP280;9930;49.240;8.548;2023-02-15T00:36:56;101995.94;;;6.60
19568;BMP280;9930;49.240;8.548;2023-02-15T00:39:22;102009.00;;;6.65
19568;BMP280;9930;49.240;8.548;2023-02-15T00:41:49;102000.78;;;6.57
19568;BMP280;9930;49.240;8.548;2023-02-15T00:44:17;101998.38;;;6.59
19568;BMP280;9930;49.240;8.548;2023-02-15T00:46:43;101999.91;;;6.57
19568;BMP280;9930;49.240;8.548;2023-02-15T00:49:13;102003.06;;;6.54
19568;BMP280;9930;49.240;8.548;2023-02-15T00:51:39;101994.22;;;6.49
19568;BMP280;9930;49.240;8.548;2023-02-15T00:54:05;102007.91;;;6.51
19568;BMP280;9930;49.240;8.548;2023-02-15T00:56:31;102001.06;;;6.50
19568;BMP280;9930;49.240;8.548;2023-02-15T00:58:57;101996.13;;;6.52
19568;BMP280;9930;49.240;8.548;2023-02-15T01:01:23;101982.31;;;6.48
19568;BMP280;9930;49.240;8.548;2023-02-15T01:03:51;102001.44;;;6.55
19568;BMP280;9930;49.240;8.548;2023-02-15T01:06:17;102001.44;;;6.55
19568;BMP280;9930;49.240;8.548;2023-02-15T01:08:47;101992.56;;;6.49
19568;BMP280;9930;49.240;8.548;2023-02-15T01:11:21;101998.78;;;6.53
19568;BMP280;9930;49.240;8.548;2023-02-15T01:13:59;101983.97;;;6.47
19568;BMP280;9930;49.240;8.548;2023-02-15T01:16:28;102003.06;;;6.54
19568;BMP280;9930;49.240;8.548;2023-02-15T01:18:54;101999.41;;;6.50
19568;BMP280;9930;49.240;8.548;2023-02-15T01:21:26;102008.78;;;6.52
19568;BMP280;9930;49.240;8.548;2023-02-15T01:23:52;102004.47;;;6.50
19568;BMP280;9930;49.240;8.548;2023-02-15T01:26:20;101991.31;;;6.44
19568;BMP280;9930;49.240;8.548;2023-02-15T01:28:46;101992.34;;;6.46
19568;BMP280;9930;49.240;8.548;2023-02-15T01:31:15;102003.19;;;6.56
19568;BMP280;9930;49.240;8.548;2023-02-15T01:33:48;101999.16;;;6.47
19568;BMP280;9930;49.240;8.548;2023-02-15T01:36:14;102004.47;;;6.50
19568;BMP280;9930;49.240;8.548;2023-02-15T01:38:42;102008.53;;;6.48
19568;BMP280;9930;49.240;8.548;2023-02-15T01:41:08;101991.09;;;6.41
19568;BMP280;9930;49.240;8.548;2023-02-15T01:44:02;101989.66;;;6.45
19568;BMP280;9930;49.240;8.548;2023-02-15T01:46:40;101982.72;;;6.42
19568;BMP280;9930;49.240;8.548;2023-02-15T01:49:21;101974.09;;;6.40
19568;BMP280;9930;49.240;8.548;2023-02-15T01:51:51;101979.28;;;6.42
19568;BMP280;9930;49.240;8.548;2023-02-15T01:54:28;101991.69;;;6.49
19568;BMP280;9930;49.240;8.548;2023-02-15T01:57:03;101979.66;;;6.46
19568;BMP280;9930;49.240;8.548;2023-02-15T01:59:34;101987.75;;;6.53
19568;BMP280;9930;49.240;8.548;2023-02-15T02:02:07;101985.84;;;6.50
19568;BMP280;9930;49.240;8.548;2023-02-15T02:04:58;101979.00;;;6.49
19568;BMP280;9930;49.240;8.548;2023-02-15T02:07:29;101976.34;;;6.47
19568;BMP280;9930;49.240;8.548;2023-02-15T02:10:04;101973.81;;;6.47
19568;BMP280;9930;49.240;8.548;2023-02-15T02:12:34;101972.06;;;6.46
19568;BMP280;9930;49.240;8.548;2023-02-15T02:15:01;101963.97;;;6.40
19568;BMP280;9930;49.240;8.548;2023-02-15T02:17:59;101964.31;;;6.45
19568;BMP280;9930;49.240;8.548;2023-02-15T02:20:50;101970.28;;;6.45
19568;BMP280;9930;49.240;8.548;2023-02-15T02:40:30;101963.03;;;6.50
19568;BMP280;9930;49.240;8.548;2023-02-15T02:43:04;101949.13;;;6.45
19568;BMP280;9930;49.240;8.548;2023-02-15T02:45:43;101943.41;;;6.47
19568;BMP280;9930;49.240;8.548;2023-02-15T02:48:19;101944.75;;;6.54
19568;BMP280;9930;49.240;8.548;2023-02-15T02:50:46;101924.13;;;6.49
19568;BMP280;9930;49.240;8.548;2023-02-15T02:53:17;101926.38;;;6.57
19568;BMP280;9930;49.240;8.548;2023-02-15T02:55:50;101921.44;;;6.58
19568;BMP280;9930;49.240;8.548;2023-02-15T02:58:47;101919.41;;;6.54
19568;BMP280;9930;49.240;8.548;2023-02-15T03:01:29;101919.78;;;6.59
19568;BMP280;9930;49.240;8.548;2023-02-15T03:04:11;101931.69;;;6.60
19568;BMP280;9930;49.240;8.548;2023-02-15T03:07:00;101936.75;;;6.60
19568;BMP280;9930;49.240;8.548;2023-02-15T03:09:45;101924.97;;;6.60
19568;BMP280;9930;49.240;8.548;2023-02-15T03:12:19;101921.19;;;6.55
19568;BMP280;9930;49.240;8.548;2023-02-15T03:14:51;101927.63;;;6.62
19568;BMP280;9930;49.240;8.548;2023-02-15T03:17:26;101921.78;;;6.63
19568;BMP280;9930;49.240;8.548;2023-02-15T03:19:57;101918.78;;;6.57
19568;BMP280;9930;49.240;8.548;2023-02-15T03:22:35;101924.19;;;6.61
19568;BMP280;9930;49.240;8.548;2023-02-15T03:25:25;101924.06;;;6.60
19568;BMP280;9930;49.240;8.548;2023-02-15T03:28:00;101923.19;;;6.59
19568;BMP280;9930;49.240;8.548;2023-02-15T03:30:32;101922.31;;;6.59
19568;BMP280;9930;49.240;8.548;2023-02-15T03:33:03;101921.66;;;6.61
19568;BMP280;9930;49.240;8.548;2023-02-15T03:35:43;101922.44;;;6.60
19568;BMP280;9930;49.240;8.548;2023-02-15T03:38:21;101925.31;;;6.65
19568;BMP280;9930;49.240;8.548;2023-02-15T03:40:56;101933.03;;;6.66
19568;BMP280;9930;49.240;8.548;2023-02-15T03:46:39;101928.38;;;6.61
19568;BMP280;9930;49.240;8.548;2023-02-15T03:49:21;101930.28;;;6.63
19568;BMP280;9930;49.240;8.548;2023-02-15T03:51:51;101946.06;;;6.71
19568;BMP280;9930;49.240;8.548;2023-02-15T03:54:26;101946.19;;;6.72
19568;BMP280;9930;49.240;8.548;2023-02-15T03:57:26;101944.44;;;6.71
19568;BMP280;9930;49.240;8.548;2023-02-15T04:00:19;101946.31;;;6.74
19568;BMP280;9930;49.240;8.548;2023-02-15T04:03:31;101937.69;;;6.72
19568;BMP280;9930;49.240;8.548;2023-02-15T04:06:04;101928.44;;;6.72
19568;BMP280;9930;49.240;8.548;2023-02-15T04:08:31;101936.53;;;6.78
19568;BMP280;9930;49.240;8.548;2023-02-15T04:11:16;101940.06;;;6.80
19568;BMP280;9930;49.240;8.548;2023-02-15T04:13:42;101930.91;;;6.82
19568;BMP280;9930;49.240;8.548;2023-02-15T04:16:08;101932.03;;;6.86
19568;BMP280;9930;49.240;8.548;2023-02-15T04:18:42;101931.38;;;6.89
19568;BMP280;9930;49.240;8.548;2023-02-15T04:21:32;101931.38;;;6.89
19568;BMP280;9930;49.240;8.548;2023-02-15T04:24:17;101929.84;;;6.91
19568;BMP280;9930;49.240;8.548;2023-02-15T04:27:04;101919.34;;;6.86
19568;BMP280;9930;49.240;8.548;2023-02-15T04:29:33;101919.94;;;6.94
19568;BMP280;9930;49.240;8.548;2023-02-15T04:32:01;101921.72;;;6.95
19568;BMP280;9930;49.240;8.548;2023-02-15T04:34:28;101919.81;;;6.92
19568;BMP280;9930;49.240;8.548;2023-02-15T04:36:56;101912.22;;;6.92
19568;BMP280;9930;49.240;8.548;2023-02-15T04:39:21;101907.91;;;6.91
19568;BMP280;9930;49.240;8.548;2023-02-15T04:41:47;101901.94;;;6.91
19568;BMP280;9930;49.240;8.548;2023-02-15T04:44:13;101901.84;;;6.89
19568;BMP280;9930;49.240;8.548;2023-02-15T04:46:39;101886.91;;;6.82
19568;BMP280;9930;49.240;8.548;2023-02-15T04:49:04;101900.19;;;6.90
19568;BMP280;9930;49.240;8.548;2023-02-15T04:51:33;101896.28;;;6.83
19568;BMP280;9930;49.240;8.548;2023-02-15T04:53:59;101902.47;;;6.87
19568;BMP280;9930;49.240;8.548;2023-02-15T04:56:25;101906.69;;;6.86
19568;BMP280;9930;49.240;8.548;2023-02-15T04:58:50;101904.38;;;6.89
19568;BMP280;9930;49.240;8.548;2023-02-15T05:01:18;101898.19;;;6.86
19568;BMP280;9930;49.240;8.548;2023-02-15T05:03:44;101897.19;;;6.83
19568;BMP280;9930;49.240;8.548;2023-02-15T05:06:10;101908.69;;;6.90
19568;BMP280;9930;49.240;8.548;2023-02-15T05:08:36;101888.03;;;6.86
19568;BMP280;9930;49.240;8.548;2023-02-15T05:11:02;101902.59;;;6.88
19568;BMP280;9930;49.240;8.548;2023-02-15T05:13:28;101908.69;;;6.90
19568;BMP280;9930;49.240;8.548;2023-02-15T05:15:54;101907.91;;;6.91
19568;BMP280;9930;49.240;8.548;2023-02-15T05:18:21;101899.19;;;6.88
19568;BMP280;9930;49.240;8.548;2023-02-15T05:20:48;101901.84;;;6.89
19568;BMP280;9930;49.240;8.548;2023-02-15T05:23:16;101899.31;;;6.89
19568;BMP280;9930;49.240;8.548;2023-02-15T05:25:51;101888.56;;;6.81
19568;BMP280;9930;49.240;8.548;2023-02-15T05:28:37;101910.09;;;6.87
19568;BMP280;9930;49.240;8.548;2023-02-15T05:31:17;101909.09;;;6.85
19568;BMP280;9930;49.240;8.548;2023-02-15T05:33:48;101909.88;;;6.83
19568;BMP280;9930;49.240;8.548;2023-02-15T05:36:14;101919.13;;;6.83
19568;BMP280;9930;49.240;8.548;2023-02-15T05:38:39;101908.22;;;6.84
19568;BMP280;9930;49.240;8.548;2023-02-15T05:41:07;101896.81;;;6.79
19568;BMP280;9930;49.240;8.548;2023-02-15T05:43:38;101910.75;;;6.84
19568;BMP280;9930;49.240;8.548;2023-02-15T05:46:05;101909.09;;;6.85
19568;BMP280;9930;49.240;8.548;2023-02-15T05:48:38;101895.94;;;6.78
19568;BMP280;9930;49.240;8.548;2023-02-15T05:51:11;101901.03;;;6.78
19568;BMP280;9930;49.240;8.548;2023-02-15T05:53:39;101920.78;;;6.82
19568;BMP280;9930;49.240;8.548;2023-02-15T05:56:12;101904.97;;;6.75
19568;BMP280;9930;49.240;8.548;2023-02-15T05:58:40;101918.88;;;6.80
19568;BMP280;9930;49.240;8.548;2023-02-15T06:01:18;101913.47;;;6.75
19568;BMP280;9930;49.240;8.548;2023-02-15T06:03:45;101918.66;;;6.77
19568;BMP280;9930;49.240;8.548;2023-02-15T06:06:14;101925.72;;;6.81
19568;BMP280;9930;49.240;8.548;2023-02-15T06:08:40;101929.28;;;6.83
19568;BMP280;9930;49.240;8.548;2023-02-15T06:11:06;101917.00;;;6.77
19568;BMP280;9930;49.240;8.548;2023-02-15T06:13:35;101926.63;;;6.81
19568;BMP280;9930;49.240;8.548;2023-02-15T06:16:01;101936.22;;;6.86
19568;BMP280;9930;49.240;8.548;2023-02-15T06:18:28;101926.84;;;6.85
19568;BMP280;9930;49.240;8.548;2023-02-15T06:20:56;101924.84;;;6.80
19568;BMP280;9930;49.240;8.548;2023-02-15T06:23:24;101925.84;;;6.82
19568;BMP280;9930;49.240;8.548;2023-02-15T06:25:49;101931.91;;;6.85
19568;BMP280;9930;49.240;8.548;2023-02-15T06:28:17;101927.16;;;6.77
19568;BMP280;9930;49.240;8.548;2023-02-15T06:30:43;101937.63;;;6.82
19568;BMP280;9930;49.240;8.548;2023-02-15T06:33:09;101937.53;;;6.80
19568;BMP280;9930;49.240;8.548;2023-02-15T06:35:35;101931.22;;;6.75
19568;BMP280;9930;49.240;8.548;2023-02-15T06:38:05;101955.28;;;6.80
19568;BMP280;9930;49.240;8.548;2023-02-15T06:40:38;101951.63;;;6.77
19568;BMP280;9930;49.240;8.548;2023-02-15T06:43:06;101963.53;;;6.78
19568;BMP280;9930;49.240;8.548;2023-02-15T06:45:35;101965.19;;;6.77
19568;BMP280;9930;49.240;8.548;2023-02-15T06:48:03;101963.41;;;6.76
19568;BMP280;9930;49.240;8.548;2023-02-15T06:50:35;101949.38;;;6.70
19568;BMP280;9930;49.240;8.548;2023-02-15T06:53:05;101964.06;;;6.74
19568;BMP280;9930;49.240;8.548;2023-02-15T06:55:31;101944.84;;;6.66
19568;BMP280;9930;49.240;8.548;2023-02-15T06:57:59;101953.56;;;6.69
19568;BMP280;9930;49.240;8.548;2023-02-15T07:00:25;101947.25;;;6.64
19568;BMP280;9930;49.240;8.548;2023-02-15T07:02:56;101958.41;;;6.66
19568;BMP280;9930;49.240;8.548;2023-02-15T07:05:27;101961.94;;;6.68
19568;BMP280;9930;49.240;8.548;2023-02-15T07:07:58;101960.16;;;6.67
19568;BMP280;9930;49.240;8.548;2023-02-15T07:10:25;101956.38;;;6.62
19568;BMP280;9930;49.240;8.548;2023-02-15T07:12:53;101944.75;;;6.54
19568;BMP280;9930;49.240;8.548;2023-02-15T07:15:24;101964.66;;;6.60
19568;BMP280;9930;49.240;8.548;2023-02-15T07:17:52;101950.47;;;6.52
19568;BMP280;9930;49.240;8.548;2023-02-15T07:20:23;101962.88;;;6.59
19568;BMP280;9930;49.240;8.548;2023-02-15T07:22:51;101971.38;;;6.59
19568;BMP280;9930;49.240;8.548;2023-02-15T07:25:18;101963.75;;;6.59
19568;BMP280;9930;49.240;8.548;2023-02-15T07:27:44;101982.38;;;6.60
19568;BMP280;9930;49.240;8.548;2023-02-15T07:30:15;101980.84;;;6.62
19568;BMP280;9930;49.240;8.548;2023-02-15T07:32:43;101974.91;;;6.61
19568;BMP280;9930;49.240;8.548;2023-02-15T07:35:27;101968.94;;;6.61
19568;BMP280;9930;49.240;8.548;2023-02-15T07:37:54;101961.88;;;6.57
19568;BMP280;9930;49.240;8.548;2023-02-15T07:40:22;101962.34;;;6.63
19568;BMP280;9930;49.240;8.548;2023-02-15T07:42:51;101970.84;;;6.63
19568;BMP280;9930;49.240;8.548;2023-02-15T07:45:20;101960.22;;;6.57
19568;BMP280;9930;49.240;8.548;2023-02-15T07:47:48;101948.31;;;6.56
19568;BMP280;9930;49.240;8.548;2023-02-15T07:50:17;101961.56;;;6.64
19568;BMP280;9930;49.240;8.548;2023-02-15T07:52:48;101959.16;;;6.65
19568;BMP280;9930;49.240;8.548;2023-02-15T07:55:14;101955.63;;;6.63
19568;BMP280;9930;49.240;8.548;2023-02-15T07:57:47;101963.34;;;6.65
19568;BMP280;9930;49.240;8.548;2023-02-15T08:00:18;101939.16;;;6.58
19568;BMP280;9930;49.240;8.548;2023-02-15T08:02:53;101954.09;;;6.65
19568;BMP280;9930;49.240;8.548;2023-02-15T08:05:42;101955.63;;;6.63
19568;BMP280;9930;49.240;8.548;2023-02-15T08:08:12;101949.44;;;6.60
19568;BMP280;9930;49.240;8.548;2023-02-15T08:11:06;101968.41;;;6.65
19568;BMP280;9930;49.240;8.548;2023-02-15T08:16:47;101960.03;;;6.66
19568;BMP280;9930;49.240;8.548;2023-02-15T08:22:01;101949.03;;;6.65
19568;BMP280;9930;49.240;8.548;2023-02-15T08:24:35;101945.72;;;6.66
19568;BMP280;9930;49.240;8.548;2023-02-15T08:27:07;101937.63;;;6.60
19568;BMP280;9930;49.240;8.548;2023-02-15T08:29:38;101935.09;;;6.60
19568;BMP280;9930;49.240;8.548;2023-02-15T08:32:14;101939.22;;;6.70
19568;BMP280;9930;49.240;8.548;2023-02-15T08:34:41;101942.78;;;6.72
19568;BMP280;9930;49.240;8.548;2023-02-15T08:37:07;101922.00;;;6.66
19568;BMP280;9930;49.240;8.548;2023-02-15T08:39:35;101946.44;;;6.75
19568;BMP280;9930;49.240;8.548;2023-02-15T08:42:07;101950.72;;;6.76
19568;BMP280;9930;49.240;8.548;2023-02-15T08:44:38;101927.44;;;6.70
19568;BMP280;9930;49.240;8.548;2023-02-15T08:47:06;101937.28;;;6.77
19568;BMP280;9930;49.240;8.548;2023-02-15T08:49:38;101942.47;;;6.79
19568;BMP280;9930;49.240;8.548;2023-02-15T08:52:06;101929.44;;;6.74
19568;BMP280;9930;49.240;8.548;2023-02-15T08:54:35;101936.63;;;6.80
19568;BMP280;9930;49.240;8.548;2023-02-15T08:57:05;101927.78;;;6.75
19568;BMP280;9930;49.240;8.548;2023-02-15T08:59:35;101921.72;;;6.73
19568;BMP280;9930;49.240;8.548;2023-02-15T09:02:05;101937.53;;;6.80
19568;BMP280;9930;49.240;8.548;2023-02-15T09:04:38;101933.22;;;6.79
19568;BMP280;9930;49.240;8.548;2023-02-15T09:07:08;101921.06;;;6.75
19568;BMP280;9930;49.240;8.548;2023-02-15T09:09:36;101924.06;;;6.81
19568;BMP280;9930;49.240;8.548;2023-02-15T09:12:07;101927.72;;;6.85
19568;BMP280;9930;49.240;8.548;2023-02-15T09:14:35;101922.78;;;6.87
19568;BMP280;9930;49.240;8.548;2023-02-15T09:17:08;101924.66;;;6.89
19568;BMP280;9930;49.240;8.548;2023-02-15T09:19:35;101917.94;;;6.90
19568;BMP280;9930;49.240;8.548;2023-02-15T09:22:01;101915.41;;;6.90
19568;BMP280;9930;49.240;8.548;2023-02-15T09:24:34;101917.06;;;6.89
19568;BMP280;9930;49.240;8.548;2023-02-15T09:26:59;101911.97;;;6.89
19568;BMP280;9930;49.240;8.548;2023-02-15T09:29:25;101911.34;;;6.92
19568;BMP280;9930;49.240;8.548;2023-02-15T09:31:54;101917.41;;;6.94
19568;BMP280;9930;49.240;8.548;2023-02-15T09:34:22;101915.88;;;6.96
19568;BMP280;9930;49.240;8.548;2023-02-15T09:36:49;101910.91;;;6.97
19568;BMP280;9930;49.240;8.548;2023-02-15T09:39:20;101904.31;;;6.99
19568;BMP280;9930;49.240;8.548;2023-02-15T09:45:03;101916.09;;;6.99
19568;BMP280;9930;49.240;8.548;2023-02-15T09:59:34;101914.78;;;7.04
19568;BMP280;9930;49.240;8.548;2023-02-15T10:20:08;101913.88;;;7.25
19568;BMP280;9930;49.240;8.548;2023-02-15T10:25:33;101922.16;;;7.34
19568;BMP280;9930;49.240;8.548;2023-02-15T10:28:15;101927.59;;;7.39
19568;BMP280;9930;49.240;8.548;2023-02-15T10:30:51;101912.78;;;7.33
19568;BMP280;9930;49.240;8.548;2023-02-15T10:33:40;101919.97;;;7.39
19568;BMP280;9930;49.240;8.548;2023-02-15T10:51:35;101911.19;;;7.57
19568;BMP280;9930;49.240;8.548;2023-02-15T11:06:06;101901.81;;;7.68
19568;BMP280;9930;49.240;8.548;2023-02-15T11:08:40;101887.13;;;7.64
19568;BMP280;9930;49.240;8.548;2023-02-15T11:11:15;101890.00;;;7.68
19568;BMP280;9930;49.240;8.548;2023-02-15T11:13:52;101898.38;;;7.79
19568;BMP280;9930;49.240;8.548;2023-02-15T11:16:27;101877.06;;;7.77
19568;BMP280;9930;49.240;8.548;2023-02-15T11:19:21;101887.13;;;7.87
19568;BMP280;9930;49.240;8.548;2023-02-15T11:21:55;101884.03;;;7.91
19568;BMP280;9930;49.240;8.548;2023-02-15T11:24:28;101871.09;;;7.88
19568;BMP280;9930;49.240;8.548;2023-02-15T11:27:16;101883.69;;;7.98
19568;BMP280;9930;49.240;8.548;2023-02-15T11:30:01;101868.22;;;7.95
19568;BMP280;9930;49.240;8.548;2023-02-15T11:32:37;101872.53;;;8.08
19568;BMP280;9930;49.240;8.548;2023-02-15T11:40:26;101857.69;;;8.14
19568;BMP280;9930;49.240;8.548;2023-02-15T11:43:06;101862.44;;;8.21
19568;BMP280;9930;49.240;8.548;2023-02-15T11:45:36;101859.34;;;8.25
19568;BMP280;9930;49.240;8.548;2023-02-15T11:48:13;101845.84;;;8.26
19568;BMP280;9930;49.240;8.548;2023-02-15T11:50:41;101856.69;;;8.35
19568;BMP280;9930;49.240;8.548;2023-02-15T11:53:22;101847.72;;;8.40
19568;BMP280;9930;49.240;8.548;2023-02-15T11:55:51;101848.81;;;8.44
19568;BMP280;9930;49.240;8.548;2023-02-15T11:58:43;101839.75;;;8.48
19568;BMP280;9930;49.240;8.548;2023-02-15T12:04:25;101834.09;;;8.52
19568;BMP280;9930;49.240;8.548;2023-02-15T12:09:55;101825.44;;;8.61
19568;BMP280;9930;49.240;8.548;2023-02-15T12:14:55;101816.66;;;8.69
19568;BMP280;9930;49.240;8.548;2023-02-15T12:17:34;101811.97;;;8.75
19568;BMP280;9930;49.240;8.548;2023-02-15T12:20:25;101807.75;;;8.76
19568;BMP280;9930;49.240;8.548;2023-02-15T12:23:08;101799.03;;;8.72
19568;BMP280;9930;49.240;8.548;2023-02-15T12:25:49;101812.38;;;8.82
19568;BMP280;9930;49.240;8.548;2023-02-15T12:28:26;101803.19;;;8.84
19568;BMP280;9930;49.240;8.548;2023-02-15T12:30:56;101787.25;;;8.86
19568;BMP280;9930;49.240;8.548;2023-02-15T12:33:42;101790.09;;;8.91
19568;BMP280;9930;49.240;8.548;2023-02-15T12:36:19;101789.22;;;8.90
19568;BMP280;9930;49.240;8.548;2023-02-15T12:41:46;101786.25;;;8.84
19568;BMP280;9930;49.240;8.548;2023-02-15T12:49:43;101788.63;;;8.94
19568;BMP280;9930;49.240;8.548;2023-02-15T12:54:46;101782.75;;;8.95
19568;BMP280;9930;49.240;8.548;2023-02-15T12:57:28;101782.97;;;8.98
19568;BMP280;9930;49.240;8.548;2023-02-15T13:00:11;101764.94;;;8.95
19568;BMP280;9930;49.240;8.548;2023-02-15T13:02:49;101779.25;;;9.06
19568;BMP280;9930;49.240;8.548;2023-02-15T13:05:42;101781.13;;;9.09
19568;BMP280;9930;49.240;8.548;2023-02-15T13:08:12;101775.44;;;9.13
19568;BMP280;9930;49.240;8.548;2023-02-15T13:10:51;101776.53;;;9.17
19568;BMP280;9930;49.240;8.548;2023-02-15T13:13:24;101767.03;;;9.14
19568;BMP280;9930;49.240;8.548;2023-02-15T13:16:02;101769.56;;;9.14
19568;BMP280;9930;49.240;8.548;2023-02-15T13:18:49;101765.94;;;9.11
19568;BMP280;9930;49.240;8.548;2023-02-15T13:21:30;101754.59;;;9.05
19568;BMP280;9930;49.240;8.548;2023-02-15T13:24:06;101749.50;;;9.05
19568;BMP280;9930;49.240;8.548;2023-02-15T13:26:43;101749.09;;;8.99
19568;BMP280;9930;49.240;8.548;2023-02-15T13:29:33;101740.47;;;8.97
19568;BMP280;9930;49.240;8.548;2023-02-15T13:34:58;101722.84;;;8.87
19568;BMP280;9930;49.240;8.548;2023-02-15T13:42:55;101714.91;;;8.83
19568;BMP280;9930;49.240;8.548;2023-02-15T14:11:47;101708.56;;;8.76
19568;BMP280;9930;49.240;8.548;2023-02-15T14:17:28;101697.91;;;8.82
19568;BMP280;9930;49.240;8.548;2023-02-15T14:20:17;101700.63;;;8.85
19568;BMP280;9930;49.240;8.548;2023-02-15T14:23:12;101692.31;;;8.87
19568;BMP280;9930;49.240;8.548;2023-02-15T14:25:48;101691.63;;;8.90
19568;BMP280;9930;49.240;8.548;2023-02-15T14:31:11;101693.00;;;8.98
19568;BMP280;9930;49.240;8.548;2023-02-15T14:33:40;101680.00;;;8.93
19568;BMP280;9930;49.240;8.548;2023-02-15T14:36:15;101678.91;;;9.03
19568;BMP280;9930;49.240;8.548;2023-02-15T14:39:11;101691.84;;;9.06
19568;BMP280;9930;49.240;8.548;2023-02-15T14:42:15;101675.41;;;9.01
19568;BMP280;9930;49.240;8.548;2023-02-15T14:45:17;101686.75;;;9.06
19568;BMP280;9930;49.240;8.548;2023-02-15T14:47:57;101677.34;;;9.05
19568;BMP280;9930;49.240;8.548;2023-02-15T14:53:33;101668.53;;;9.00
19568;BMP280;9930;49.240;8.548;2023-02-15T15:01:35;101672.06;;;9.02
19568;BMP280;9930;49.240;8.548;2023-02-15T15:04:23;101655.44;;;8.94
19568;BMP280;9930;49.240;8.548;2023-02-15T15:09:41;101667.47;;;8.96
19568;BMP280;9930;49.240;8.548;2023-02-15T15:14:51;101645.63;;;8.87
19568;BMP280;9930;49.240;8.548;2023-02-15T15:20:49;101666.00;;;8.87
19568;BMP280;9930;49.240;8.548;2023-02-15T15:26:23;101656.78;;;8.75
19568;BMP280;9930;49.240;8.548;2023-02-15T15:31:31;101669.81;;;8.80
19568;BMP280;9930;49.240;8.548;2023-02-15T15:40:01;101665.78;;;8.70
19568;BMP280;9930;49.240;8.548;2023-02-15T15:46:10;101675.47;;;8.63
19568;BMP280;9930;49.240;8.548;2023-02-15T15:48:41;101675.16;;;8.58
19568;BMP280;9930;49.240;8.548;2023-02-15T15:51:22;101674.19;;;8.56
19568;BMP280;9930;49.240;8.548;2023-02-15T15:53:51;101672.41;;;8.55
19568;BMP280;9930;49.240;8.548;2023-02-15T15:56:27;101661.63;;;8.46
19568;BMP280;9930;49.240;8.548;2023-02-15T15:59:07;101665.25;;;8.50
19568;BMP280;9930;49.240;8.548;2023-02-15T16:01:47;101668.19;;;8.42
19568;BMP280;9930;49.240;8.548;2023-02-15T16:04:29;101669.94;;;8.43
19568;BMP280;9930;49.240;8.548;2023-02-15T16:07:18;101678.94;;;8.38
19568;BMP280;9930;49.240;8.548;2023-02-15T16:09:59;101674.53;;;8.36
19568;BMP280;9930;49.240;8.548;2023-02-15T16:12:28;101675.84;;;8.31
19568;BMP280;9930;49.240;8.548;2023-02-15T16:14:56;101677.41;;;8.29
19568;BMP280;9930;49.240;8.548;2023-02-15T16:17:31;101664.97;;;8.20
19568;BMP280;9930;49.240;8.548;2023-02-15T16:20:17;101672.69;;;8.22
19568;BMP280;9930;49.240;8.548;2023-02-15T16:22:46;101670.72;;;8.18
19568;BMP280;9930;49.240;8.548;2023-02-15T16:25:25;101679.78;;;8.14
19568;BMP280;9930;49.240;8.548;2023-02-15T16:27:54;101681.25;;;8.10
19568;BMP280;9930;49.240;8.548;2023-02-15T16:30:35;101682.72;;;8.07
19568;BMP280;9930;49.240;8.548;2023-02-15T16:35:35;101682.09;;;7.98
19568;BMP280;9930;49.240;8.548;2023-02-15T16:38:03;101677.56;;;7.94
19568;BMP280;9930;49.240;8.548;2023-02-15T16:40:49;101666.34;;;7.78
19568;BMP280;9930;49.240;8.548;2023-02-15T16:43:28;101680.25;;;7.84
19568;BMP280;9930;49.240;8.548;2023-02-15T16:46:23;101690.09;;;7.79
19568;BMP280;9930;49.240;8.548;2023-02-15T16:49:00;101692.22;;;7.73
19568;BMP280;9930;49.240;8.548;2023-02-15T16:51:32;101672.03;;;7.63
19568;BMP280;9930;49.240;8.548;2023-02-15T16:54:08;101680.53;;;7.63
19568;BMP280;9930;49.240;8.548;2023-02-15T16:56:38;101686.06;;;7.58
19568;BMP280;9930;49.240;8.548;2023-02-15T16:59:49;101689.84;;;7.51
19568;BMP280;9930;49.240;8.548;2023-02-15T17:02:21;101692.16;;;7.48
19568;BMP280;9930;49.240;8.548;2023-02-15T17:05:21;101694.28;;;7.42
19568;BMP280;9930;49.240;8.548;2023-02-15T17:08:25;101685.91;;;7.31
19568;BMP280;9930;49.240;8.548;2023-02-15T17:11:14;101687.13;;;7.25
19568;BMP280;9930;49.240;8.548;2023-02-15T17:16:43;101686.13;;;7.23
19568;BMP280;9930;49.240;8.548;2023-02-15T17:19:24;101683.69;;;7.12
19568;BMP280;9930;49.240;8.548;2023-02-15T17:22:05;101676.75;;;7.10
19568;BMP280;9930;49.240;8.548;2023-02-15T17:24:41;101672.13;;;7.04
19568;BMP280;9930;49.240;8.548;2023-02-15T17:27:22;101663.97;;;6.97
19568;BMP280;9930;49.240;8.548;2023-02-15T17:30:14;101680.06;;;6.97
19568;BMP280;9930;49.240;8.548;2023-02-15T17:33:00;101677.31;;;6.94
19568;BMP280;9930;49.240;8.548;2023-02-15T17:35:31;101668.50;;;6.89
19568;BMP280;9930;49.240;8.548;2023-02-15T17:38:15;101678.09;;;6.93
19568;BMP280;9930;49.240;8.548;2023-02-15T17:40:49;101674.09;;;6.85
19568;BMP280;9930;49.240;8.548;2023-02-15T17:43:15;101692.97;;;6.89
19568;BMP280;9930;49.240;8.548;2023-02-15T17:45:51;101676.19;;;6.79
19568;BMP280;9930;49.240;8.548;2023-02-15T17:48:33;101674.31;;;6.76
19568;BMP280;9930;49.240;8.548;2023-02-15T17:51:05;101690.66;;;6.80
19568;BMP280;9930;49.240;8.548;2023-02-15T17:53:37;101681.38;;;6.69
19568;BMP280;9930;49.240;8.548;2023-02-15T17:56:03;101689.97;;;6.71
19568;BMP280;9930;49.240;8.548;2023-02-15T17:58:36;101689.75;;;6.68
19568;BMP280;9930;49.240;8.548;2023-02-15T18:01:14;101681.59;;;6.60
19568;BMP280;9930;49.240;8.548;2023-02-15T18:04:00;101691.72;;;6.60
19568;BMP280;9930;49.240;8.548;2023-02-15T18:06:44;101676.59;;;6.50
19568;BMP280;9930;49.240;8.548;2023-02-15T18:09:29;101683.44;;;6.51
19568;BMP280;9930;49.240;8.548;2023-02-15T18:12:25;101674.28;;;6.41